sensor_id;sensor_type;location;lat;lon;timestamp;temperature;humidity
68251;DHT22;55066;51.560;4.642;2023-04-29T00:01:37;10.76;95.31
68251;DHT22;55066;51.560;4.642;2023-04-29T00:04:03;10.82;93.94
68251;DHT22;55066;51.560;4.642;2023-04-29T00:06:28;10.57;96.70
68251;DHT22;55066;51.560;4.642;2023-04-29T00:08:55;10.93;92.19
68251;DHT22;55066;51.560;4.642;2023-04-29T00:11:21;10.69;93.46
68251;DHT22;55066;51.560;4.642;2023-04-29T00:13:46;10.71;95.78
68251;DHT22;55066;51.560;4.642;2023-04-29T00:16:15;10.51;94.59
68251;DHT22;55066;51.560;4.642;2023-04-29T00:18:40;10.47;96.45
68251;DHT22;55066;51.560;4.642;2023-04-29T00:21:09;10.89;91.32
68251;DHT22;55066;51.560;4.642;2023-04-29T00:23:34;10.78;94.27
68251;DHT22;55066;51.560;4.642;2023-04-29T00:26:00;10.44;93.48
68251;DHT22;55066;51.560;4.642;2023-04-29T00:28:27;10.54;96.14
68251;DHT22;55066;51.560;4.642;2023-04-29T00:30:52;10.58;95.38
68251;DHT22;55066;51.560;4.642;2023-04-29T00:33:19;10.57;94.00
68251;DHT22;55066;51.560;4.642;2023-04-29T00:35:46;10.54;93.34
68251;DHT22;55066;51.560;4.642;2023-04-29T00:38:12;10.69;93.69
68251;DHT22;55066;51.560;4.642;2023-04-29T00:40:37;10.37;97.46
68251;DHT22;55066;51.560;4.642;2023-04-29T00:43:04;10.58;94.51
68251;DHT22;55066;51.560;4.642;2023-04-29T00:45:31;10.36;95.14
68251;DHT22;55066;51.560;4.642;2023-04-29T00:47:57;10.59;92.92
68251;DHT22;55066;51.560;4.642;2023-04-29T00:50:23;10.42;94.70
68251;DHT22;55066;51.560;4.642;2023-04-29T00:52:50;10.57;94.47
68251;DHT22;55066;51.560;4.642;2023-04-29T00:55:16;10.36;94.74
68251;DHT22;55066;51.560;4.642;2023-04-29T00:57:42;10.48;96.37
68251;DHT22;55066;51.560;4.642;2023-04-29T01:00:08;10.44;95.78
68251;DHT22;55066;51.560;4.642;2023-04-29T01:02:34;10.71;91.59
68251;DHT22;55066;51.560;4.642;2023-04-29T01:05:01;10.69;92.19
68251;DHT22;55066;51.560;4.642;2023-04-29T01:08:04;10.49;96.51
68251;DHT22;55066;51.560;4.642;2023-04-29T01:10:24;10.47;92.05
68251;DHT22;55066;51.560;4.642;2023-04-29T01:13:30;10.34;95.31
68251;DHT22;55066;51.560;4.642;2023-04-29T01:16:10;10.52;94.56
68251;DHT22;55066;51.560;4.642;2023-04-29T01:18:41;10.45;94.65
68251;DHT22;55066;51.560;4.642;2023-04-29T01:21:08;10.38;92.29
68251;DHT22;55066;51.560;4.642;2023-04-29T01:23:34;10.71;90.80
68251;DHT22;55066;51.560;4.642;2023-04-29T01:26:00;10.64;93.94
68251;DHT22;55066;51.560;4.642;2023-04-29T01:28:57;10.27;95.08
68251;DHT22;55066;51.560;4.642;2023-04-29T01:31:48;10.37;96.52
68251;DHT22;55066;51.560;4.642;2023-04-29T01:34:43;10.75;92.48
68251;DHT22;55066;51.560;4.642;2023-04-29T01:40:21;10.72;90.20
68251;DHT22;55066;51.560;4.642;2023-04-29T01:43:07;10.66;93.29
68251;DHT22;55066;51.560;4.642;2023-04-29T01:45:38;10.64;90.72
68251;DHT22;55066;51.560;4.642;2023-04-29T01:48:07;10.51;95.53
68251;DHT22;55066;51.560;4.642;2023-04-29T01:50:34;10.57;90.89
68251;DHT22;55066;51.560;4.642;2023-04-29T01:53:07;10.40;95.43
68251;DHT22;55066;51.560;4.642;2023-04-29T01:55:34;10.55;92.32
68251;DHT22;55066;51.560;4.642;2023-04-29T01:58:23;10.38;94.45
68251;DHT22;55066;51.560;4.642;2023-04-29T02:01:01;10.44;94.04
68251;DHT22;55066;51.560;4.642;2023-04-29T02:03:30;10.68;91.68
68251;DHT22;55066;51.560;4.642;2023-04-29T02:05:58;10.66;90.32
68251;DHT22;55066;51.560;4.642;2023-04-29T02:08:25;10.64;94.35
68251;DHT22;55066;51.560;4.642;2023-04-29T02:10:58;10.72;90.04
68251;DHT22;55066;51.560;4.642;2023-04-29T02:13:42;10.52;90.63
68251;DHT22;55066;51.560;4.642;2023-04-29T02:16:10;10.83;89.53
68251;DHT22;55066;51.560;4.642;2023-04-29T02:18:39;10.57;94.41
68251;DHT22;55066;51.560;4.642;2023-04-29T02:21:05;10.16;95.82
68251;DHT22;55066;51.560;4.642;2023-04-29T02:23:36;10.30;91.91
68251;DHT22;55066;51.560;4.642;2023-04-29T02:26:03;10.24;95.72
68251;DHT22;55066;51.560;4.642;2023-04-29T02:28:33;10.33;93.41
68251;DHT22;55066;51.560;4.642;2023-04-29T02:30:59;10.37;91.49
68251;DHT22;55066;51.560;4.642;2023-04-29T02:33:24;10.18;95.73
68251;DHT22;55066;51.560;4.642;2023-04-29T02:35:52;10.04;95.64
68251;DHT22;55066;51.560;4.642;2023-04-29T02:38:17;10.17;93.96
68251;DHT22;55066;51.560;4.642;2023-04-29T02:40:44;10.17;93.19
68251;DHT22;55066;51.560;4.642;2023-04-29T02:43:10;10.04;96.98
68251;DHT22;55066;51.560;4.642;2023-04-29T02:45:36;10.00;94.22
68251;DHT22;55066;51.560;4.642;2023-04-29T02:48:03;10.06;93.06
68251;DHT22;55066;51.560;4.642;2023-04-29T02:50:30;10.04;95.30
68251;DHT22;55066;51.560;4.642;2023-04-29T02:52:56;10.02;92.88
68251;DHT22;55066;51.560;4.642;2023-04-29T02:55:22;10.02;94.99
68251;DHT22;55066;51.560;4.642;2023-04-29T02:57:47;9.92;96.76
68251;DHT22;55066;51.560;4.642;2023-04-29T03:00:12;10.10;92.35
68251;DHT22;55066;51.560;4.642;2023-04-29T03:02:38;10.14;94.24
68251;DHT22;55066;51.560;4.642;2023-04-29T03:05:04;10.14;93.20
68251;DHT22;55066;51.560;4.642;2023-04-29T03:07:30;10.13;94.27
68251;DHT22;55066;51.560;4.642;2023-04-29T03:09:58;10.37;90.56
68251;DHT22;55066;51.560;4.642;2023-04-29T03:12:23;10.33;91.35
68251;DHT22;55066;51.560;4.642;2023-04-29T03:14:49;10.24;90.42
68251;DHT22;55066;51.560;4.642;2023-04-29T03:17:14;10.24;92.10
68251;DHT22;55066;51.560;4.642;2023-04-29T03:19:41;10.28;90.32
68251;DHT22;55066;51.560;4.642;2023-04-29T03:22:06;10.25;91.17
68251;DHT22;55066;51.560;4.642;2023-04-29T03:24:34;10.14;91.25
68251;DHT22;55066;51.560;4.642;2023-04-29T03:27:03;10.02;92.84
68251;DHT22;55066;51.560;4.642;2023-04-29T03:29:29;10.09;94.96
68251;DHT22;55066;51.560;4.642;2023-04-29T03:31:55;10.18;90.74
68251;DHT22;55066;51.560;4.642;2023-04-29T03:34:21;10.14;91.74
68251;DHT22;55066;51.560;4.642;2023-04-29T03:36:58;10.20;92.77
68251;DHT22;55066;51.560;4.642;2023-04-29T03:39:26;10.31;92.15
68251;DHT22;55066;51.560;4.642;2023-04-29T03:41:59;10.16;95.46
68251;DHT22;55066;51.560;4.642;2023-04-29T03:44:27;10.04;93.51
68251;DHT22;55066;51.560;4.642;2023-04-29T03:46:55;10.09;94.34
68251;DHT22;55066;51.560;4.642;2023-04-29T03:49:23;10.14;91.02
68251;DHT22;55066;51.560;4.642;2023-04-29T03:51:48;9.87;95.68
68251;DHT22;55066;51.560;4.642;2023-04-29T03:54:15;9.73;92.44
68251;DHT22;55066;51.560;4.642;2023-04-29T03:56:41;9.81;92.49
68251;DHT22;55066;51.560;4.642;2023-04-29T03:59:07;9.73;94.05
68251;DHT22;55066;51.560;4.642;2023-04-29T04:01:33;9.81;94.65
68251;DHT22;55066;51.560;4.642;2023-04-29T04:03:59;9.82;92.76
68251;DHT22;55066;51.560;4.642;2023-04-29T04:06:24;9.79;93.91
68251;DHT22;55066;51.560;4.642;2023-04-29T04:08:51;9.68;97.13
68251;DHT22;55066;51.560;4.642;2023-04-29T04:11:23;9.72;96.89
68251;DHT22;55066;51.560;4.642;2023-04-29T04:13:55;10.02;91.15
68251;DHT22;55066;51.560;4.642;2023-04-29T04:16:20;10.17;91.91
68251;DHT22;55066;51.560;4.642;2023-04-29T04:18:46;9.96;93.37
68251;DHT22;55066;51.560;4.642;2023-04-29T04:21:12;10.00;91.24
68251;DHT22;55066;51.560;4.642;2023-04-29T04:23:43;9.83;94.50
68251;DHT22;55066;51.560;4.642;2023-04-29T04:26:11;9.69;93.88
68251;DHT22;55066;51.560;4.642;2023-04-29T04:28:55;9.85;94.03
68251;DHT22;55066;51.560;4.642;2023-04-29T04:31:48;9.82;96.03
68251;DHT22;55066;51.560;4.642;2023-04-29T04:34:16;9.86;92.82
68251;DHT22;55066;51.560;4.642;2023-04-29T04:36:45;9.83;96.82
68251;DHT22;55066;51.560;4.642;2023-04-29T04:39:14;9.79;93.80
68251;DHT22;55066;51.560;4.642;2023-04-29T04:41:40;9.81;91.60
68251;DHT22;55066;51.560;4.642;2023-04-29T04:44:05;9.76;95.62
68251;DHT22;55066;51.560;4.642;2023-04-29T04:46:40;9.85;91.95
68251;DHT22;55066;51.560;4.642;2023-04-29T04:49:27;9.96;94.19
68251;DHT22;55066;51.560;4.642;2023-04-29T04:51:52;9.85;96.51
68251;DHT22;55066;51.560;4.642;2023-04-29T04:54:18;9.94;93.02
68251;DHT22;55066;51.560;4.642;2023-04-29T04:56:44;10.24;91.31
68251;DHT22;55066;51.560;4.642;2023-04-29T04:59:10;10.09;91.47
68251;DHT22;55066;51.560;4.642;2023-04-29T05:01:38;10.02;90.64
68251;DHT22;55066;51.560;4.642;2023-04-29T05:04:04;10.09;94.15
68251;DHT22;55066;51.560;4.642;2023-04-29T05:06:29;9.94;95.65
68251;DHT22;55066;51.560;4.642;2023-04-29T05:08:55;9.90;92.96
68251;DHT22;55066;51.560;4.642;2023-04-29T05:11:22;9.99;91.06
68251;DHT22;55066;51.560;4.642;2023-04-29T05:14:08;10.07;90.36
68251;DHT22;55066;51.560;4.642;2023-04-29T05:16:33;10.14;95.00
68251;DHT22;55066;51.560;4.642;2023-04-29T05:18:59;10.17;89.48
68251;DHT22;55066;51.560;4.642;2023-04-29T05:21:29;10.30;89.89
68251;DHT22;55066;51.560;4.642;2023-04-29T05:23:58;10.28;89.30
68251;DHT22;55066;51.560;4.642;2023-04-29T05:26:25;10.31;91.02
68251;DHT22;55066;51.560;4.642;2023-04-29T05:28:53;10.24;90.14
68251;DHT22;55066;51.560;4.642;2023-04-29T05:31:20;10.25;92.90
68251;DHT22;55066;51.560;4.642;2023-04-29T05:33:45;10.30;92.73
68251;DHT22;55066;51.560;4.642;2023-04-29T05:36:12;10.41;90.20
68251;DHT22;55066;51.560;4.642;2023-04-29T05:38:38;10.40;89.91
68251;DHT22;55066;51.560;4.642;2023-04-29T05:41:06;10.38;91.27
68251;DHT22;55066;51.560;4.642;2023-04-29T05:43:50;10.41;88.63
68251;DHT22;55066;51.560;4.642;2023-04-29T05:46:17;10.51;88.19
68251;DHT22;55066;51.560;4.642;2023-04-29T05:48:44;10.45;89.41
68251;DHT22;55066;51.560;4.642;2023-04-29T05:51:12;10.42;94.18
68251;DHT22;55066;51.560;4.642;2023-04-29T05:53:38;10.48;90.65
68251;DHT22;55066;51.560;4.642;2023-04-29T05:56:05;10.52;90.39
68251;DHT22;55066;51.560;4.642;2023-04-29T05:58:34;10.61;88.63
68251;DHT22;55066;51.560;4.642;2023-04-29T06:00:59;10.49;95.30
68251;DHT22;55066;51.560;4.642;2023-04-29T06:03:25;10.61;88.66
68251;DHT22;55066;51.560;4.642;2023-04-29T06:06:17;10.78;89.36
68251;DHT22;55066;51.560;4.642;2023-04-29T06:09:00;10.66;93.88
68251;DHT22;55066;51.560;4.642;2023-04-29T06:11:27;10.66;89.46
68251;DHT22;55066;51.560;4.642;2023-04-29T06:13:56;10.79;87.67
68251;DHT22;55066;51.560;4.642;2023-04-29T06:16:21;10.88;87.56
68251;DHT22;55066;51.560;4.642;2023-04-29T06:18:49;10.80;90.73
68251;DHT22;55066;51.560;4.642;2023-04-29T06:21:14;10.82;88.23
68251;DHT22;55066;51.560;4.642;2023-04-29T06:23:41;10.75;91.90
68251;DHT22;55066;51.560;4.642;2023-04-29T06:26:15;10.65;92.67
68251;DHT22;55066;51.560;4.642;2023-04-29T06:28:41;10.73;93.26
68251;DHT22;55066;51.560;4.642;2023-04-29T06:31:06;10.83;92.45
68251;DHT22;55066;51.560;4.642;2023-04-29T06:33:34;10.79;94.05
68251;DHT22;55066;51.560;4.642;2023-04-29T06:35:59;10.83;94.72
68251;DHT22;55066;51.560;4.642;2023-04-29T06:38:46;11.06;88.10
68251;DHT22;55066;51.560;4.642;2023-04-29T06:41:28;11.04;92.43
68251;DHT22;55066;51.560;4.642;2023-04-29T06:44:34;11.22;86.84
68251;DHT22;55066;51.560;4.642;2023-04-29T06:47:18;11.31;88.81
68251;DHT22;55066;51.560;4.642;2023-04-29T06:49:54;11.40;91.42
68251;DHT22;55066;51.560;4.642;2023-04-29T06:52:20;11.45;87.50
68251;DHT22;55066;51.560;4.642;2023-04-29T06:54:46;11.62;86.38
68251;DHT22;55066;51.560;4.642;2023-04-29T06:57:18;11.71;86.34
68251;DHT22;55066;51.560;4.642;2023-04-29T06:59:46;11.62;92.63
68251;DHT22;55066;51.560;4.642;2023-04-29T07:02:11;11.48;90.66
68251;DHT22;55066;51.560;4.642;2023-04-29T07:04:37;11.58;87.81
68251;DHT22;55066;51.560;4.642;2023-04-29T07:07:03;11.54;91.74
68251;DHT22;55066;51.560;4.642;2023-04-29T07:09:28;11.37;92.20
68251;DHT22;55066;51.560;4.642;2023-04-29T07:11:55;11.27;92.11
68251;DHT22;55066;51.560;4.642;2023-04-29T07:14:22;11.16;90.50
68251;DHT22;55066;51.560;4.642;2023-04-29T07:16:52;11.14;89.04
68251;DHT22;55066;51.560;4.642;2023-04-29T07:19:21;11.02;92.62
68251;DHT22;55066;51.560;4.642;2023-04-29T07:21:46;11.07;90.98
68251;DHT22;55066;51.560;4.642;2023-04-29T07:24:12;11.10;90.53
68251;DHT22;55066;51.560;4.642;2023-04-29T07:26:37;11.04;93.60
68251;DHT22;55066;51.560;4.642;2023-04-29T07:29:02;11.19;90.45
68251;DHT22;55066;51.560;4.642;2023-04-29T07:31:28;11.55;88.75
68251;DHT22;55066;51.560;4.642;2023-04-29T07:33:54;11.68;90.38
68251;DHT22;55066;51.560;4.642;2023-04-29T07:36:21;11.79;91.77
68251;DHT22;55066;51.560;4.642;2023-04-29T07:38:49;12.09;88.54
68251;DHT22;55066;51.560;4.642;2023-04-29T07:41:16;12.33;88.82
68251;DHT22;55066;51.560;4.642;2023-04-29T07:43:43;12.68;87.53
68251;DHT22;55066;51.560;4.642;2023-04-29T07:46:08;12.53;90.04
68251;DHT22;55066;51.560;4.642;2023-04-29T07:48:38;12.77;87.04
68251;DHT22;55066;51.560;4.642;2023-04-29T07:51:11;12.65;87.72
68251;DHT22;55066;51.560;4.642;2023-04-29T07:53:37;13.12;85.48
68251;DHT22;55066;51.560;4.642;2023-04-29T07:56:07;13.02;86.38
68251;DHT22;55066;51.560;4.642;2023-04-29T07:58:33;13.15;85.69
68251;DHT22;55066;51.560;4.642;2023-04-29T08:01:09;13.24;85.35
68251;DHT22;55066;51.560;4.642;2023-04-29T08:03:40;13.22;86.25
68251;DHT22;55066;51.560;4.642;2023-04-29T08:06:07;12.77;88.19
68251;DHT22;55066;51.560;4.642;2023-04-29T08:08:35;12.57;88.82
68251;DHT22;55066;51.560;4.642;2023-04-29T08:11:02;12.74;89.29
68251;DHT22;55066;51.560;4.642;2023-04-29T08:13:28;13.42;85.58
68251;DHT22;55066;51.560;4.642;2023-04-29T08:15:53;13.50;85.58
68251;DHT22;55066;51.560;4.642;2023-04-29T08:18:19;13.18;87.42
68251;DHT22;55066;51.560;4.642;2023-04-29T08:20:47;13.44;86.75
68251;DHT22;55066;51.560;4.642;2023-04-29T08:23:14;13.24;87.11
68251;DHT22;55066;51.560;4.642;2023-04-29T08:25:42;13.61;86.73
68251;DHT22;55066;51.560;4.642;2023-04-29T08:28:09;13.86;86.40
68251;DHT22;55066;51.560;4.642;2023-04-29T08:30:37;14.00;85.39
68251;DHT22;55066;51.560;4.642;2023-04-29T08:33:04;14.13;86.09
68251;DHT22;55066;51.560;4.642;2023-04-29T08:35:31;14.19;85.20
68251;DHT22;55066;51.560;4.642;2023-04-29T08:37:56;14.11;85.99
68251;DHT22;55066;51.560;4.642;2023-04-29T08:40:23;13.60;87.08
68251;DHT22;55066;51.560;4.642;2023-04-29T08:42:49;13.75;86.63
68251;DHT22;55066;51.560;4.642;2023-04-29T08:45:19;14.32;86.49
68251;DHT22;55066;51.560;4.642;2023-04-29T08:47:44;14.06;85.43
68251;DHT22;55066;51.560;4.642;2023-04-29T08:50:12;14.85;84.35
68251;DHT22;55066;51.560;4.642;2023-04-29T08:52:37;15.50;82.77
68251;DHT22;55066;51.560;4.642;2023-04-29T08:55:03;15.59;81.87
68251;DHT22;55066;51.560;4.642;2023-04-29T08:57:35;15.57;81.76
68251;DHT22;55066;51.560;4.642;2023-04-29T09:00:09;13.95;85.15
68251;DHT22;55066;51.560;4.642;2023-04-29T09:02:42;14.16;85.48
68251;DHT22;55066;51.560;4.642;2023-04-29T09:05:09;14.70;85.69
68251;DHT22;55066;51.560;4.642;2023-04-29T09:07:38;15.31;83.54
68251;DHT22;55066;51.560;4.642;2023-04-29T09:10:04;15.70;83.30
68251;DHT22;55066;51.560;4.642;2023-04-29T09:12:30;15.29;84.29
68251;DHT22;55066;51.560;4.642;2023-04-29T09:14:56;15.32;85.94
68251;DHT22;55066;51.560;4.642;2023-04-29T09:17:42;14.68;82.82
68251;DHT22;55066;51.560;4.642;2023-04-29T09:23:00;14.96;82.51
68251;DHT22;55066;51.560;4.642;2023-04-29T09:25:27;14.28;83.50
68251;DHT22;55066;51.560;4.642;2023-04-29T09:27:54;14.47;83.50
68251;DHT22;55066;51.560;4.642;2023-04-29T09:30:21;13.65;85.30
68251;DHT22;55066;51.560;4.642;2023-04-29T09:33:07;13.79;85.48
68251;DHT22;55066;51.560;4.642;2023-04-29T09:35:33;13.24;84.10
68251;DHT22;55066;51.560;4.642;2023-04-29T09:38:10;14.12;88.07
68251;DHT22;55066;51.560;4.642;2023-04-29T09:40:37;15.16;82.37
68251;DHT22;55066;51.560;4.642;2023-04-29T09:43:02;14.60;81.42
68251;DHT22;55066;51.560;4.642;2023-04-29T09:45:35;14.57;82.44
68251;DHT22;55066;51.560;4.642;2023-04-29T09:48:03;14.15;83.67
68251;DHT22;55066;51.560;4.642;2023-04-29T09:50:30;14.56;85.77
68251;DHT22;55066;51.560;4.642;2023-04-29T09:52:55;14.09;83.44
68251;DHT22;55066;51.560;4.642;2023-04-29T09:55:21;14.06;83.88
68251;DHT22;55066;51.560;4.642;2023-04-29T09:57:47;14.18;84.82
68251;DHT22;55066;51.560;4.642;2023-04-29T10:00:13;14.71;82.31
68251;DHT22;55066;51.560;4.642;2023-04-29T10:02:41;15.61;81.34
68251;DHT22;55066;51.560;4.642;2023-04-29T10:05:08;15.81;79.03
68251;DHT22;55066;51.560;4.642;2023-04-29T10:07:34;16.04;77.25
68251;DHT22;55066;51.560;4.642;2023-04-29T10:10:03;15.71;76.58
68251;DHT22;55066;51.560;4.642;2023-04-29T10:12:30;16.04;77.40
68251;DHT22;55066;51.560;4.642;2023-04-29T10:15:19;16.24;80.15
68251;DHT22;55066;51.560;4.642;2023-04-29T10:17:58;17.97;81.24
68251;DHT22;55066;51.560;4.642;2023-04-29T10:20:24;16.73;75.05
68251;DHT22;55066;51.560;4.642;2023-04-29T10:22:52;16.22;78.62
68251;DHT22;55066;51.560;4.642;2023-04-29T10:25:20;15.71;79.92
68251;DHT22;55066;51.560;4.642;2023-04-29T10:27:48;16.43;76.82
68251;DHT22;55066;51.560;4.642;2023-04-29T10:30:15;15.76;79.04
68251;DHT22;55066;51.560;4.642;2023-04-29T10:32:42;16.33;83.97
68251;DHT22;55066;51.560;4.642;2023-04-29T10:35:09;14.83;78.84
68251;DHT22;55066;51.560;4.642;2023-04-29T10:37:35;14.77;79.03
68251;DHT22;55066;51.560;4.642;2023-04-29T10:40:11;15.01;78.48
68251;DHT22;55066;51.560;4.642;2023-04-29T10:53:13;16.79;82.26
68251;DHT22;55066;51.560;4.642;2023-04-29T10:55:41;16.80;81.72
68251;DHT22;55066;51.560;4.642;2023-04-29T11:01:00;16.64;77.03
68251;DHT22;55066;51.560;4.642;2023-04-29T11:03:49;16.02;74.31
68251;DHT22;55066;51.560;4.642;2023-04-29T11:11:47;15.31;75.70
68251;DHT22;55066;51.560;4.642;2023-04-29T11:14:14;15.18;76.29
68251;DHT22;55066;51.560;4.642;2023-04-29T11:16:48;15.97;82.08
68251;DHT22;55066;51.560;4.642;2023-04-29T11:19:16;17.03;77.06
68251;DHT22;55066;51.560;4.642;2023-04-29T11:21:44;15.96;74.84
68251;DHT22;55066;51.560;4.642;2023-04-29T11:24:10;16.36;75.78
68251;DHT22;55066;51.560;4.642;2023-04-29T11:26:37;17.24;77.64
68251;DHT22;55066;51.560;4.642;2023-04-29T11:29:04;17.49;74.37
68251;DHT22;55066;51.560;4.642;2023-04-29T11:31:32;16.88;71.12
68251;DHT22;55066;51.560;4.642;2023-04-29T11:33:59;16.73;77.69
68251;DHT22;55066;51.560;4.642;2023-04-29T11:36:25;17.46;77.14
68251;DHT22;55066;51.560;4.642;2023-04-29T11:38:51;17.31;77.14
68251;DHT22;55066;51.560;4.642;2023-04-29T11:41:18;17.66;75.22
68251;DHT22;55066;51.560;4.642;2023-04-29T11:43:45;17.72;81.73
68251;DHT22;55066;51.560;4.642;2023-04-29T11:46:12;18.56;74.56
68251;DHT22;55066;51.560;4.642;2023-04-29T11:48:44;18.42;73.79
68251;DHT22;55066;51.560;4.642;2023-04-29T11:51:10;17.43;73.07
68251;DHT22;55066;51.560;4.642;2023-04-29T11:53:37;17.59;73.44
68251;DHT22;55066;51.560;4.642;2023-04-29T11:56:02;17.86;74.00
68251;DHT22;55066;51.560;4.642;2023-04-29T11:58:29;18.10;78.47
68251;DHT22;55066;51.560;4.642;2023-04-29T12:00:57;17.15;74.81
68251;DHT22;55066;51.560;4.642;2023-04-29T12:03:22;18.34;77.07
68251;DHT22;55066;51.560;4.642;2023-04-29T12:05:51;18.20;70.17
68251;DHT22;55066;51.560;4.642;2023-04-29T12:08:26;17.61;76.70
68251;DHT22;55066;51.560;4.642;2023-04-29T12:10:54;17.06;71.38
68251;DHT22;55066;51.560;4.642;2023-04-29T12:13:22;17.82;78.91
68251;DHT22;55066;51.560;4.642;2023-04-29T12:15:51;17.84;69.34
68251;DHT22;55066;51.560;4.642;2023-04-29T12:18:17;18.60;73.74
68251;DHT22;55066;51.560;4.642;2023-04-29T12:20:44;18.31;69.27
68251;DHT22;55066;51.560;4.642;2023-04-29T12:23:13;18.11;74.91
68251;DHT22;55066;51.560;4.642;2023-04-29T12:25:39;18.11;73.77
68251;DHT22;55066;51.560;4.642;2023-04-29T12:28:12;18.82;77.01
68251;DHT22;55066;51.560;4.642;2023-04-29T12:30:39;17.63;71.30
68251;DHT22;55066;51.560;4.642;2023-04-29T12:33:07;18.11;78.38
68251;DHT22;55066;51.560;4.642;2023-04-29T12:35:33;18.00;69.62
68251;DHT22;55066;51.560;4.642;2023-04-29T12:37:58;17.61;73.65
68251;DHT22;55066;51.560;4.642;2023-04-29T12:40:24;18.05;73.61
68251;DHT22;55066;51.560;4.642;2023-04-29T12:42:54;19.30;81.86
68251;DHT22;55066;51.560;4.642;2023-04-29T12:45:30;20.27;76.62
68251;DHT22;55066;51.560;4.642;2023-04-29T12:47:56;20.55;71.76
68251;DHT22;55066;51.560;4.642;2023-04-29T12:50:30;20.06;75.68
68251;DHT22;55066;51.560;4.642;2023-04-29T12:52:57;18.18;67.53
68251;DHT22;55066;51.560;4.642;2023-04-29T12:55:23;18.79;73.76
68251;DHT22;55066;51.560;4.642;2023-04-29T12:57:49;18.01;71.07
68251;DHT22;55066;51.560;4.642;2023-04-29T13:00:15;18.39;74.25
68251;DHT22;55066;51.560;4.642;2023-04-29T13:02:41;18.17;71.84
68251;DHT22;55066;51.560;4.642;2023-04-29T13:05:07;19.78;79.44
68251;DHT22;55066;51.560;4.642;2023-04-29T13:07:33;20.48;74.47
68251;DHT22;55066;51.560;4.642;2023-04-29T13:09:59;19.27;66.74
68251;DHT22;55066;51.560;4.642;2023-04-29T13:12:26;19.11;69.76
68251;DHT22;55066;51.560;4.642;2023-04-29T13:14:52;18.59;67.54
68251;DHT22;55066;51.560;4.642;2023-04-29T13:17:17;19.32;67.72
68251;DHT22;55066;51.560;4.642;2023-04-29T13:19:42;19.93;68.44
68251;DHT22;55066;51.560;4.642;2023-04-29T13:22:09;18.70;66.96
68251;DHT22;55066;51.560;4.642;2023-04-29T13:24:36;18.00;68.47
68251;DHT22;55066;51.560;4.642;2023-04-29T13:27:05;18.39;71.74
68251;DHT22;55066;51.560;4.642;2023-04-29T13:29:30;19.20;66.79
68251;DHT22;55066;51.560;4.642;2023-04-29T13:31:57;19.80;68.27
68251;DHT22;55066;51.560;4.642;2023-04-29T13:34:22;19.35;66.28
68251;DHT22;55066;51.560;4.642;2023-04-29T13:36:48;19.30;76.26
68251;DHT22;55066;51.560;4.642;2023-04-29T13:39:13;19.78;70.43
68251;DHT22;55066;51.560;4.642;2023-04-29T13:41:40;20.16;70.65
68251;DHT22;55066;51.560;4.642;2023-04-29T13:44:05;17.96;68.22
68251;DHT22;55066;51.560;4.642;2023-04-29T13:46:32;18.86;72.04
68251;DHT22;55066;51.560;4.642;2023-04-29T13:48:57;19.38;69.19
68251;DHT22;55066;51.560;4.642;2023-04-29T13:51:23;18.35;69.26
68251;DHT22;55066;51.560;4.642;2023-04-29T13:53:48;20.03;70.67
68251;DHT22;55066;51.560;4.642;2023-04-29T13:56:15;20.38;70.68
68251;DHT22;55066;51.560;4.642;2023-04-29T13:58:41;19.83;78.71
68251;DHT22;55066;51.560;4.642;2023-04-29T14:01:07;18.47;70.25
68251;DHT22;55066;51.560;4.642;2023-04-29T14:03:32;20.09;73.81
68251;DHT22;55066;51.560;4.642;2023-04-29T14:05:58;20.23;68.31
68251;DHT22;55066;51.560;4.642;2023-04-29T14:08:23;19.83;73.91
68251;DHT22;55066;51.560;4.642;2023-04-29T14:10:48;20.55;75.67
68251;DHT22;55066;51.560;4.642;2023-04-29T14:13:14;20.41;75.16
68251;DHT22;55066;51.560;4.642;2023-04-29T14:15:40;19.94;77.10
68251;DHT22;55066;51.560;4.642;2023-04-29T14:18:05;20.00;73.93
68251;DHT22;55066;51.560;4.642;2023-04-29T14:20:32;21.31;72.54
68251;DHT22;55066;51.560;4.642;2023-04-29T14:22:57;20.16;67.30
68251;DHT22;55066;51.560;4.642;2023-04-29T14:25:23;21.10;69.14
68251;DHT22;55066;51.560;4.642;2023-04-29T14:27:48;22.50;71.45
68251;DHT22;55066;51.560;4.642;2023-04-29T14:30:14;22.32;73.28
68251;DHT22;55066;51.560;4.642;2023-04-29T14:32:40;22.14;66.29
68251;DHT22;55066;51.560;4.642;2023-04-29T14:35:06;21.29;65.45
68251;DHT22;55066;51.560;4.642;2023-04-29T14:37:31;20.01;66.37
68251;DHT22;55066;51.560;4.642;2023-04-29T14:39:57;19.42;63.16
68251;DHT22;55066;51.560;4.642;2023-04-29T14:42:22;18.01;66.19
68251;DHT22;55066;51.560;4.642;2023-04-29T14:44:48;19.41;83.25
68251;DHT22;55066;51.560;4.642;2023-04-29T14:47:13;19.30;76.39
68251;DHT22;55066;51.560;4.642;2023-04-29T14:49:38;18.27;69.93
68251;DHT22;55066;51.560;4.642;2023-04-29T14:52:05;19.17;69.66
68251;DHT22;55066;51.560;4.642;2023-04-29T14:54:30;19.58;75.23
68251;DHT22;55066;51.560;4.642;2023-04-29T14:56:55;21.07;74.60
68251;DHT22;55066;51.560;4.642;2023-04-29T14:59:21;21.53;65.64
68251;DHT22;55066;51.560;4.642;2023-04-29T15:01:46;21.20;63.47
68251;DHT22;55066;51.560;4.642;2023-04-29T15:04:12;21.91;68.74
68251;DHT22;55066;51.560;4.642;2023-04-29T15:06:39;20.64;66.31
68251;DHT22;55066;51.560;4.642;2023-04-29T15:09:06;20.27;65.23
68251;DHT22;55066;51.560;4.642;2023-04-29T15:11:32;19.10;71.79
68251;DHT22;55066;51.560;4.642;2023-04-29T15:13:57;19.45;70.35
68251;DHT22;55066;51.560;4.642;2023-04-29T15:16:23;19.31;68.02
68251;DHT22;55066;51.560;4.642;2023-04-29T15:18:49;20.65;71.71
68251;DHT22;55066;51.560;4.642;2023-04-29T15:21:14;19.52;68.29
68251;DHT22;55066;51.560;4.642;2023-04-29T15:23:39;20.52;66.49
68251;DHT22;55066;51.560;4.642;2023-04-29T15:26:05;20.64;65.75
68251;DHT22;55066;51.560;4.642;2023-04-29T15:28:31;19.92;77.03
68251;DHT22;55066;51.560;4.642;2023-04-29T15:30:58;20.26;77.79
68251;DHT22;55066;51.560;4.642;2023-04-29T15:33:25;18.95;71.37
68251;DHT22;55066;51.560;4.642;2023-04-29T15:35:51;18.96;82.08
68251;DHT22;55066;51.560;4.642;2023-04-29T15:38:17;20.06;76.49
68251;DHT22;55066;51.560;4.642;2023-04-29T15:40:42;20.48;71.80
68251;DHT22;55066;51.560;4.642;2023-04-29T15:43:07;21.84;73.94
68251;DHT22;55066;51.560;4.642;2023-04-29T15:45:33;21.94;74.02
68251;DHT22;55066;51.560;4.642;2023-04-29T15:47:58;21.43;71.10
68251;DHT22;55066;51.560;4.642;2023-04-29T15:50:24;20.79;74.86
68251;DHT22;55066;51.560;4.642;2023-04-29T15:52:49;22.28;69.74
68251;DHT22;55066;51.560;4.642;2023-04-29T15:55:19;22.78;71.12
68251;DHT22;55066;51.560;4.642;2023-04-29T15:57:44;22.49;69.08
68251;DHT22;55066;51.560;4.642;2023-04-29T16:00:10;22.29;71.36
68251;DHT22;55066;51.560;4.642;2023-04-29T16:02:36;20.40;76.51
68251;DHT22;55066;51.560;4.642;2023-04-29T16:05:02;22.39;72.28